sensor_id;sensor_type;location;lat;lon;timestamp;P1;durP1;ratioP1;P2;durP2;ratioP2
7669;SDS011;3877;42.562;27.636;2022-09-02T00:01:10;10.00;;;5.22;;
7669;SDS011;3877;42.562;27.636;2022-09-02T00:03:41;14.75;;;5.20;;
7669;SDS011;3877;42.562;27.636;2022-09-02T00:06:10;11.48;;;5.28;;
7669;SDS011;3877;42.562;27.636;2022-09-02T00:08:38;11.85;;;5.63;;
7669;SDS011;3877;42.562;27.636;2022-09-02T00:11:07;7.03;;;4.70;;
7669;SDS011;3877;42.562;27.636;2022-09-02T00:13:40;10.10;;;5.30;;
7669;SDS011;3877;42.562;27.636;2022-09-02T00:16:09;10.95;;;4.95;;
7669;SDS011;3877;42.562;27.636;2022-09-02T00:18:37;12.30;;;5.13;;
7669;SDS011;3877;42.562;27.636;2022-09-02T00:21:06;11.27;;;5.57;;
7669;SDS011;3877;42.562;27.636;2022-09-02T00:23:38;10.90;;;4.97;;
7669;SDS011;3877;42.562;27.636;2022-09-02T00:26:06;13.93;;;5.22;;
7669;SDS011;3877;42.562;27.636;2022-09-02T00:28:34;12.35;;;5.32;;
7669;SDS011;3877;42.562;27.636;2022-09-02T00:31:03;9.93;;;5.07;;
7669;SDS011;3877;42.562;27.636;2022-09-02T00:33:31;11.50;;;5.38;;
7669;SDS011;3877;42.562;27.636;2022-09-02T00:35:59;8.68;;;5.28;;
7669;SDS011;3877;42.562;27.636;2022-09-02T00:38:28;17.63;;;6.13;;
7669;SDS011;3877;42.562;27.636;2022-09-02T00:40:58;14.07;;;5.65;;
7669;SDS011;3877;42.562;27.636;2022-09-02T00:43:37;12.43;;;5.38;;
7669;SDS011;3877;42.562;27.636;2022-09-02T00:46:09;12.63;;;5.70;;
7669;SDS011;3877;42.562;27.636;2022-09-02T00:48:39;13.32;;;5.88;;
7669;SDS011;3877;42.562;27.636;2022-09-02T00:51:09;12.32;;;5.90;;
7669;SDS011;3877;42.562;27.636;2022-09-02T00:53:39;10.18;;;5.72;;
7669;SDS011;3877;42.562;27.636;2022-09-02T00:56:09;8.23;;;5.20;;
7669;SDS011;3877;42.562;27.636;2022-09-02T00:58:40;10.32;;;4.75;;
7669;SDS011;3877;42.562;27.636;2022-09-02T01:01:10;10.18;;;5.53;;
7669;SDS011;3877;42.562;27.636;2022-09-02T01:03:38;10.60;;;5.20;;
7669;SDS011;3877;42.562;27.636;2022-09-02T01:06:06;8.82;;;5.43;;
7669;SDS011;3877;42.562;27.636;2022-09-02T01:08:36;9.82;;;5.47;;
7669;SDS011;3877;42.562;27.636;2022-09-02T01:11:04;13.35;;;5.65;;
7669;SDS011;3877;42.562;27.636;2022-09-02T01:13:35;9.70;;;5.07;;
7669;SDS011;3877;42.562;27.636;2022-09-02T01:16:08;14.15;;;4.90;;
7669;SDS011;3877;42.562;27.636;2022-09-02T01:18:49;14.30;;;5.28;;
7669;SDS011;3877;42.562;27.636;2022-09-02T01:21:20;11.50;;;4.85;;
7669;SDS011;3877;42.562;27.636;2022-09-02T01:23:50;7.35;;;4.40;;
7669;SDS011;3877;42.562;27.636;2022-09-02T01:26:18;8.77;;;5.20;;
7669;SDS011;3877;42.562;27.636;2022-09-02T01:28:46;12.45;;;5.00;;
7669;SDS011;3877;42.562;27.636;2022-09-02T01:31:13;8.77;;;4.40;;
7669;SDS011;3877;42.562;27.636;2022-09-02T01:33:41;9.90;;;4.60;;
7669;SDS011;3877;42.562;27.636;2022-09-02T01:36:09;10.65;;;5.15;;
7669;SDS011;3877;42.562;27.636;2022-09-02T01:38:36;12.50;;;5.07;;
7669;SDS011;3877;42.562;27.636;2022-09-02T01:41:05;8.70;;;4.70;;
7669;SDS011;3877;42.562;27.636;2022-09-02T01:43:32;8.43;;;4.80;;
7669;SDS011;3877;42.562;27.636;2022-09-02T01:46:00;17.15;;;4.68;;
7669;SDS011;3877;42.562;27.636;2022-09-02T01:48:28;14.45;;;4.68;;
7669;SDS011;3877;42.562;27.636;2022-09-02T01:50:56;9.55;;;4.50;;
7669;SDS011;3877;42.562;27.636;2022-09-02T01:53:26;7.72;;;4.55;;
7669;SDS011;3877;42.562;27.636;2022-09-02T01:55:54;10.85;;;4.50;;
7669;SDS011;3877;42.562;27.636;2022-09-02T01:58:23;12.13;;;4.70;;
7669;SDS011;3877;42.562;27.636;2022-09-02T02:00:51;11.30;;;4.75;;
7669;SDS011;3877;42.562;27.636;2022-09-02T02:03:18;12.32;;;5.00;;
7669;SDS011;3877;42.562;27.636;2022-09-02T02:05:45;9.27;;;4.53;;
7669;SDS011;3877;42.562;27.636;2022-09-02T02:08:13;8.98;;;4.40;;
7669;SDS011;3877;42.562;27.636;2022-09-02T02:10:41;7.80;;;4.18;;
7669;SDS011;3877;42.562;27.636;2022-09-02T02:13:09;10.00;;;4.82;;
7669;SDS011;3877;42.562;27.636;2022-09-02T02:15:38;9.63;;;4.50;;
7669;SDS011;3877;42.562;27.636;2022-09-02T02:18:07;9.45;;;5.00;;
7669;SDS011;3877;42.562;27.636;2022-09-02T02:20:35;15.73;;;5.22;;
7669;SDS011;3877;42.562;27.636;2022-09-02T02:23:04;7.05;;;4.43;;
7669;SDS011;3877;42.562;27.636;2022-09-02T02:25:31;10.05;;;4.82;;
7669;SDS011;3877;42.562;27.636;2022-09-02T02:27:59;6.70;;;4.53;;
7669;SDS011;3877;42.562;27.636;2022-09-02T02:30:26;8.07;;;4.72;;
7669;SDS011;3877;42.562;27.636;2022-09-02T02:32:55;11.95;;;5.20;;
7669;SDS011;3877;42.562;27.636;2022-09-02T02:35:23;10.25;;;5.30;;
7669;SDS011;3877;42.562;27.636;2022-09-02T02:37:50;8.15;;;4.88;;
7669;SDS011;3877;42.562;27.636;2022-09-02T02:40:18;13.75;;;4.68;;
7669;SDS011;3877;42.562;27.636;2022-09-02T02:42:48;10.38;;;5.18;;
7669;SDS011;3877;42.562;27.636;2022-09-02T02:45:18;12.75;;;5.10;;
7669;SDS011;3877;42.562;27.636;2022-09-02T02:47:46;10.88;;;5.15;;
7669;SDS011;3877;42.562;27.636;2022-09-02T02:50:15;10.38;;;4.78;;
7669;SDS011;3877;42.562;27.636;2022-09-02T02:52:45;9.77;;;4.93;;
7669;SDS011;3877;42.562;27.636;2022-09-02T02:55:13;12.15;;;5.18;;
7669;SDS011;3877;42.562;27.636;2022-09-02T02:57:43;13.23;;;5.03;;
7669;SDS011;3877;42.562;27.636;2022-09-02T03:00:11;8.63;;;5.10;;
7669;SDS011;3877;42.562;27.636;2022-09-02T03:02:42;11.48;;;4.97;;
7669;SDS011;3877;42.562;27.636;2022-09-02T03:05:10;17.63;;;5.63;;
7669;SDS011;3877;42.562;27.636;2022-09-02T03:07:40;9.93;;;4.90;;
7669;SDS011;3877;42.562;27.636;2022-09-02T03:10:08;14.82;;;5.28;;
7669;SDS011;3877;42.562;27.636;2022-09-02T03:12:37;11.50;;;4.45;;
7669;SDS011;3877;42.562;27.636;2022-09-02T03:15:05;12.18;;;4.80;;
7669;SDS011;3877;42.562;27.636;2022-09-02T03:17:35;14.32;;;5.03;;
7669;SDS011;3877;42.562;27.636;2022-09-02T03:20:04;11.10;;;4.57;;
7669;SDS011;3877;42.562;27.636;2022-09-02T03:22:32;7.28;;;4.82;;
7669;SDS011;3877;42.562;27.636;2022-09-02T03:25:05;11.25;;;4.93;;
7669;SDS011;3877;42.562;27.636;2022-09-02T03:27:35;8.70;;;4.60;;
7669;SDS011;3877;42.562;27.636;2022-09-02T03:30:04;9.77;;;4.30;;
7669;SDS011;3877;42.562;27.636;2022-09-02T03:32:33;9.48;;;5.40;;
7669;SDS011;3877;42.562;27.636;2022-09-02T03:35:01;10.65;;;4.30;;
7669;SDS011;3877;42.562;27.636;2022-09-02T03:37:28;14.27;;;4.97;;
7669;SDS011;3877;42.562;27.636;2022-09-02T03:39:55;12.20;;;4.80;;
7669;SDS011;3877;42.562;27.636;2022-09-02T03:42:24;8.23;;;4.63;;
7669;SDS011;3877;42.562;27.636;2022-09-02T03:44:52;15.77;;;5.00;;
7669;SDS011;3877;42.562;27.636;2022-09-02T03:47:19;6.95;;;4.47;;
7669;SDS011;3877;42.562;27.636;2022-09-02T03:49:48;9.95;;;4.35;;
7669;SDS011;3877;42.562;27.636;2022-09-02T03:52:15;10.38;;;4.60;;
7669;SDS011;3877;42.562;27.636;2022-09-02T03:54:43;11.68;;;4.95;;
7669;SDS011;3877;42.562;27.636;2022-09-02T03:57:10;12.75;;;4.78;;
7669;SDS011;3877;42.562;27.636;2022-09-02T03:59:39;9.27;;;4.65;;
7669;SDS011;3877;42.562;27.636;2022-09-02T04:02:07;6.78;;;4.32;;
7669;SDS011;3877;42.562;27.636;2022-09-02T04:04:35;10.07;;;5.05;;
7669;SDS011;3877;42.562;27.636;2022-09-02T04:07:02;9.38;;;4.85;;
7669;SDS011;3877;42.562;27.636;2022-09-02T04:09:29;10.73;;;5.10;;
7669;SDS011;3877;42.562;27.636;2022-09-02T04:11:57;13.35;;;4.97;;
7669;SDS011;3877;42.562;27.636;2022-09-02T04:14:24;10.45;;;4.88;;
7669;SDS011;3877;42.562;27.636;2022-09-02T04:16:53;8.60;;;4.32;;
7669;SDS011;3877;42.562;27.636;2022-09-02T04:19:20;12.00;;;5.18;;
7669;SDS011;3877;42.562;27.636;2022-09-02T04:21:47;11.68;;;5.05;;
7669;SDS011;3877;42.562;27.636;2022-09-02T04:24:15;10.25;;;4.95;;
7669;SDS011;3877;42.562;27.636;2022-09-02T04:26:42;14.38;;;4.70;;
7669;SDS011;3877;42.562;27.636;2022-09-02T04:29:09;10.20;;;5.15;;
7669;SDS011;3877;42.562;27.636;2022-09-02T04:31:37;8.68;;;4.82;;
7669;SDS011;3877;42.562;27.636;2022-09-02T04:34:06;8.15;;;4.88;;
7669;SDS011;3877;42.562;27.636;2022-09-02T04:36:33;22.52;;;5.60;;
7669;SDS011;3877;42.562;27.636;2022-09-02T04:39:01;16.92;;;5.13;;
7669;SDS011;3877;42.562;27.636;2022-09-02T04:41:29;13.73;;;4.95;;
7669;SDS011;3877;42.562;27.636;2022-09-02T04:43:56;11.27;;;5.13;;
7669;SDS011;3877;42.562;27.636;2022-09-02T04:46:25;10.27;;;5.25;;
7669;SDS011;3877;42.562;27.636;2022-09-02T04:48:53;11.82;;;4.93;;
7669;SDS011;3877;42.562;27.636;2022-09-02T04:51:23;12.07;;;5.18;;
7669;SDS011;3877;42.562;27.636;2022-09-02T04:53:52;18.15;;;5.05;;
7669;SDS011;3877;42.562;27.636;2022-09-02T04:56:21;10.10;;;4.95;;
7669;SDS011;3877;42.562;27.636;2022-09-02T04:58:49;10.52;;;5.00;;
7669;SDS011;3877;42.562;27.636;2022-09-02T05:01:18;11.05;;;5.13;;
7669;SDS011;3877;42.562;27.636;2022-09-02T05:03:47;9.95;;;4.60;;
7669;SDS011;3877;42.562;27.636;2022-09-02T05:06:17;12.65;;;5.32;;
7669;SDS011;3877;42.562;27.636;2022-09-02T05:08:47;10.63;;;4.63;;
7669;SDS011;3877;42.562;27.636;2022-09-02T05:11:16;13.38;;;4.80;;
7669;SDS011;3877;42.562;27.636;2022-09-02T05:13:45;11.43;;;4.70;;
7669;SDS011;3877;42.562;27.636;2022-09-02T05:16:15;10.73;;;4.43;;
7669;SDS011;3877;42.562;27.636;2022-09-02T05:18:43;15.82;;;5.05;;
7669;SDS011;3877;42.562;27.636;2022-09-02T05:21:11;14.40;;;4.75;;
7669;SDS011;3877;42.562;27.636;2022-09-02T05:23:39;10.85;;;4.60;;
7669;SDS011;3877;42.562;27.636;2022-09-02T05:26:08;13.55;;;5.07;;
7669;SDS011;3877;42.562;27.636;2022-09-02T05:28:37;12.95;;;4.80;;
7669;SDS011;3877;42.562;27.636;2022-09-02T05:31:06;12.73;;;4.28;;
7669;SDS011;3877;42.562;27.636;2022-09-02T05:33:37;11.10;;;4.78;;
7669;SDS011;3877;42.562;27.636;2022-09-02T05:36:06;11.13;;;5.03;;
7669;SDS011;3877;42.562;27.636;2022-09-02T05:38:34;13.32;;;5.65;;
7669;SDS011;3877;42.562;27.636;2022-09-02T05:41:03;11.88;;;5.50;;
7669;SDS011;3877;42.562;27.636;2022-09-02T05:43:35;10.00;;;5.05;;
7669;SDS011;3877;42.562;27.636;2022-09-02T05:46:03;8.25;;;4.68;;
7669;SDS011;3877;42.562;27.636;2022-09-02T05:48:32;11.60;;;4.65;;
7669;SDS011;3877;42.562;27.636;2022-09-02T05:51:18;8.57;;;4.57;;
7669;SDS011;3877;42.562;27.636;2022-09-02T05:53:45;7.93;;;4.55;;
7669;SDS011;3877;42.562;27.636;2022-09-02T05:56:12;10.00;;;4.75;;
7669;SDS011;3877;42.562;27.636;2022-09-02T05:58:41;18.48;;;5.43;;
7669;SDS011;3877;42.562;27.636;2022-09-02T06:01:08;14.70;;;4.93;;
7669;SDS011;3877;42.562;27.636;2022-09-02T06:03:36;8.13;;;4.53;;
7669;SDS011;3877;42.562;27.636;2022-09-02T06:06:04;11.02;;;4.55;;
7669;SDS011;3877;42.562;27.636;2022-09-02T06:08:32;9.88;;;4.70;;
7669;SDS011;3877;42.562;27.636;2022-09-02T06:11:00;9.38;;;4.20;;
7669;SDS011;3877;42.562;27.636;2022-09-02T06:13:28;9.52;;;4.00;;
7669;SDS011;3877;42.562;27.636;2022-09-02T06:15:58;12.63;;;4.78;;
7669;SDS011;3877;42.562;27.636;2022-09-02T06:18:26;7.55;;;4.20;;
7669;SDS011;3877;42.562;27.636;2022-09-02T06:20:54;10.98;;;4.85;;
7669;SDS011;3877;42.562;27.636;2022-09-02T06:23:21;9.57;;;4.50;;
7669;SDS011;3877;42.562;27.636;2022-09-02T06:25:49;12.05;;;4.30;;
7669;SDS011;3877;42.562;27.636;2022-09-02T06:28:17;11.60;;;4.32;;
7669;SDS011;3877;42.562;27.636;2022-09-02T06:30:44;11.65;;;4.43;;
7669;SDS011;3877;42.562;27.636;2022-09-02T06:33:14;8.77;;;4.18;;
7669;SDS011;3877;42.562;27.636;2022-09-02T06:35:42;17.52;;;4.68;;
7669;SDS011;3877;42.562;27.636;2022-09-02T06:38:12;15.45;;;5.05;;
7669;SDS011;3877;42.562;27.636;2022-09-02T06:40:45;10.48;;;4.43;;
7669;SDS011;3877;42.562;27.636;2022-09-02T06:43:13;12.02;;;4.78;;
7669;SDS011;3877;42.562;27.636;2022-09-02T06:45:40;11.63;;;4.55;;
7669;SDS011;3877;42.562;27.636;2022-09-02T06:48:07;12.65;;;4.57;;
7669;SDS011;3877;42.562;27.636;2022-09-02T06:50:38;12.95;;;4.50;;
7669;SDS011;3877;42.562;27.636;2022-09-02T06:53:06;13.05;;;4.47;;
7669;SDS011;3877;42.562;27.636;2022-09-02T06:55:35;8.30;;;4.97;;
7669;SDS011;3877;42.562;27.636;2022-09-02T06:58:03;18.90;;;4.85;;
7669;SDS011;3877;42.562;27.636;2022-09-02T07:00:31;11.55;;;4.18;;
7669;SDS011;3877;42.562;27.636;2022-09-02T07:03:00;8.65;;;4.95;;
7669;SDS011;3877;42.562;27.636;2022-09-02T07:05:46;13.52;;;4.93;;
7669;SDS011;3877;42.562;27.636;2022-09-02T07:08:13;11.40;;;4.38;;
7669;SDS011;3877;42.562;27.636;2022-09-02T07:10:41;10.85;;;4.82;;
7669;SDS011;3877;42.562;27.636;2022-09-02T07:13:08;12.82;;;4.90;;
7669;SDS011;3877;42.562;27.636;2022-09-02T07:15:36;12.60;;;5.15;;
7669;SDS011;3877;42.562;27.636;2022-09-02T07:18:06;13.07;;;5.18;;
7669;SDS011;3877;42.562;27.636;2022-09-02T07:20:33;18.83;;;5.65;;
7669;SDS011;3877;42.562;27.636;2022-09-02T07:23:02;11.20;;;5.07;;
7669;SDS011;3877;42.562;27.636;2022-09-02T07:25:29;18.23;;;5.45;;
7669;SDS011;3877;42.562;27.636;2022-09-02T07:27:57;14.60;;;6.05;;
7669;SDS011;3877;42.562;27.636;2022-09-02T07:30:24;15.50;;;5.50;;
7669;SDS011;3877;42.562;27.636;2022-09-02T07:32:51;15.30;;;5.22;;
7669;SDS011;3877;42.562;27.636;2022-09-02T07:35:19;18.08;;;6.20;;
7669;SDS011;3877;42.562;27.636;2022-09-02T07:37:46;17.52;;;5.80;;
7669;SDS011;3877;42.562;27.636;2022-09-02T07:40:16;16.77;;;6.05;;
7669;SDS011;3877;42.562;27.636;2022-09-02T07:42:44;18.60;;;5.90;;
7669;SDS011;3877;42.562;27.636;2022-09-02T07:45:11;11.13;;;5.63;;
7669;SDS011;3877;42.562;27.636;2022-09-02T07:47:39;11.98;;;5.30;;
7669;SDS011;3877;42.562;27.636;2022-09-02T07:50:06;14.77;;;5.63;;
7669;SDS011;3877;42.562;27.636;2022-09-02T07:52:35;13.73;;;5.78;;
7669;SDS011;3877;42.562;27.636;2022-09-02T07:55:02;11.45;;;6.00;;
7669;SDS011;3877;42.562;27.636;2022-09-02T07:57:32;12.10;;;6.07;;
7669;SDS011;3877;42.562;27.636;2022-09-02T07:59:59;16.25;;;5.80;;
7669;SDS011;3877;42.562;27.636;2022-09-02T08:02:26;11.85;;;6.03;;
7669;SDS011;3877;42.562;27.636;2022-09-02T08:04:54;14.50;;;5.78;;
7669;SDS011;3877;42.562;27.636;2022-09-02T08:07:21;14.88;;;6.05;;
7669;SDS011;3877;42.562;27.636;2022-09-02T08:09:49;14.10;;;7.05;;
7669;SDS011;3877;42.562;27.636;2022-09-02T08:12:17;14.23;;;6.20;;
7669;SDS011;3877;42.562;27.636;2022-09-02T08:14:45;16.08;;;6.53;;
7669;SDS011;3877;42.562;27.636;2022-09-02T08:17:13;14.07;;;6.28;;
7669;SDS011;3877;42.562;27.636;2022-09-02T08:19:40;15.05;;;6.07;;
7669;SDS011;3877;42.562;27.636;2022-09-02T08:22:08;10.88;;;6.18;;
7669;SDS011;3877;42.562;27.636;2022-09-02T08:24:36;11.65;;;6.05;;
7669;SDS011;3877;42.562;27.636;2022-09-02T08:27:04;13.98;;;6.45;;
7669;SDS011;3877;42.562;27.636;2022-09-02T08:29:31;16.95;;;6.47;;
7669;SDS011;3877;42.562;27.636;2022-09-02T08:32:00;14.07;;;6.50;;
7669;SDS011;3877;42.562;27.636;2022-09-02T08:34:27;19.13;;;6.97;;
7669;SDS011;3877;42.562;27.636;2022-09-02T08:36:55;13.55;;;6.25;;
7669;SDS011;3877;42.562;27.636;2022-09-02T08:39:23;13.45;;;6.38;;
7669;SDS011;3877;42.562;27.636;2022-09-02T08:41:53;12.52;;;6.40;;
7669;SDS011;3877;42.562;27.636;2022-09-02T08:44:28;17.33;;;6.88;;
7669;SDS011;3877;42.562;27.636;2022-09-02T08:47:01;16.90;;;6.40;;
7669;SDS011;3877;42.562;27.636;2022-09-02T08:49:32;17.30;;;6.43;;
7669;SDS011;3877;42.562;27.636;2022-09-02T08:52:05;11.50;;;5.75;;
7669;SDS011;3877;42.562;27.636;2022-09-02T08:54:33;13.60;;;6.30;;
7669;SDS011;3877;42.562;27.636;2022-09-02T08:57:07;13.75;;;5.90;;
7669;SDS011;3877;42.562;27.636;2022-09-02T08:59:36;19.35;;;6.63;;
7669;SDS011;3877;42.562;27.636;2022-09-02T09:02:07;17.25;;;6.75;;
7669;SDS011;3877;42.562;27.636;2022-09-02T09:04:52;15.00;;;6.25;;
7669;SDS011;3877;42.562;27.636;2022-09-02T09:07:33;19.13;;;6.95;;
7669;SDS011;3877;42.562;27.636;2022-09-02T09:10:08;14.80;;;6.60;;
7669;SDS011;3877;42.562;27.636;2022-09-02T09:12:51;15.02;;;5.95;;
7669;SDS011;3877;42.562;27.636;2022-09-02T09:15:31;15.95;;;6.32;;
7669;SDS011;3877;42.562;27.636;2022-09-02T09:18:07;13.55;;;6.55;;
7669;SDS011;3877;42.562;27.636;2022-09-02T09:20:40;17.30;;;6.32;;
7669;SDS011;3877;42.562;27.636;2022-09-02T09:23:13;15.77;;;6.38;;
7669;SDS011;3877;42.562;27.636;2022-09-02T09:25:51;14.90;;;6.88;;
7669;SDS011;3877;42.562;27.636;2022-09-02T09:28:22;11.75;;;6.10;;
7669;SDS011;3877;42.562;27.636;2022-09-02T09:30:49;14.38;;;6.97;;
7669;SDS011;3877;42.562;27.636;2022-09-02T09:33:18;16.67;;;6.57;;
7669;SDS011;3877;42.562;27.636;2022-09-02T09:35:49;19.13;;;7.15;;
7669;SDS011;3877;42.562;27.636;2022-09-02T09:38:27;18.35;;;7.22;;
7669;SDS011;3877;42.562;27.636;2022-09-02T09:41:13;19.42;;;7.30;;
7669;SDS011;3877;42.562;27.636;2022-09-02T09:43:42;19.65;;;7.88;;
7669;SDS011;3877;42.562;27.636;2022-09-02T09:46:19;18.90;;;7.00;;
7669;SDS011;3877;42.562;27.636;2022-09-02T09:48:53;18.45;;;7.47;;
7669;SDS011;3877;42.562;27.636;2022-09-02T09:51:20;18.85;;;8.32;;
7669;SDS011;3877;42.562;27.636;2022-09-02T09:53:48;15.27;;;7.65;;
7669;SDS011;3877;42.562;27.636;2022-09-02T09:56:26;20.30;;;8.07;;
7669;SDS011;3877;42.562;27.636;2022-09-02T09:58:57;22.00;;;7.85;;
7669;SDS011;3877;42.562;27.636;2022-09-02T10:01:25;19.17;;;8.10;;
7669;SDS011;3877;42.562;27.636;2022-09-02T10:03:57;21.38;;;7.68;;
7669;SDS011;3877;42.562;27.636;2022-09-02T10:06:38;17.15;;;7.72;;
7669;SDS011;3877;42.562;27.636;2022-09-02T10:09:27;14.90;;;6.78;;
7669;SDS011;3877;42.562;27.636;2022-09-02T10:11:58;18.77;;;7.45;;
7669;SDS011;3877;42.562;27.636;2022-09-02T10:14:30;16.98;;;8.32;;
7669;SDS011;3877;42.562;27.636;2022-09-02T10:17:02;17.80;;;7.82;;
7669;SDS011;3877;42.562;27.636;2022-09-02T10:19:43;17.23;;;7.82;;
7669;SDS011;3877;42.562;27.636;2022-09-02T10:22:31;17.23;;;8.35;;
7669;SDS011;3877;42.562;27.636;2022-09-02T10:25:21;22.80;;;8.07;;
7669;SDS011;3877;42.562;27.636;2022-09-02T10:27:57;17.33;;;8.10;;
7669;SDS011;3877;42.562;27.636;2022-09-02T10:30:29;14.88;;;7.35;;
7669;SDS011;3877;42.562;27.636;2022-09-02T10:33:08;18.20;;;8.10;;
7669;SDS011;3877;42.562;27.636;2022-09-02T10:35:46;13.65;;;7.22;;
7669;SDS011;3877;42.562;27.636;2022-09-02T10:38:26;17.55;;;7.25;;
7669;SDS011;3877;42.562;27.636;2022-09-02T10:41:04;14.57;;;7.55;;
7669;SDS011;3877;42.562;27.636;2022-09-02T10:46:40;16.83;;;7.97;;
7669;SDS011;3877;42.562;27.636;2022-09-02T10:49:16;20.42;;;8.20;;
7669;SDS011;3877;42.562;27.636;2022-09-02T10:51:55;20.75;;;7.88;;
7669;SDS011;3877;42.562;27.636;2022-09-02T10:54:33;18.27;;;7.25;;
7669;SDS011;3877;42.562;27.636;2022-09-02T10:57:10;17.88;;;7.45;;
7669;SDS011;3877;42.562;27.636;2022-09-02T10:59:42;20.67;;;7.53;;
7669;SDS011;3877;42.562;27.636;2022-09-02T11:02:18;17.25;;;7.35;;
7669;SDS011;3877;42.562;27.636;2022-09-02T11:04:51;20.05;;;7.55;;
7669;SDS011;3877;42.562;27.636;2022-09-02T11:07:26;16.25;;;7.32;;
7669;SDS011;3877;42.562;27.636;2022-09-02T11:09:58;16.05;;;6.93;;
7669;SDS011;3877;42.562;27.636;2022-09-02T11:12:31;15.90;;;7.82;;
7669;SDS011;3877;42.562;27.636;2022-09-02T11:15:05;15.10;;;7.72;;
7669;SDS011;3877;42.562;27.636;2022-09-02T11:17:43;17.55;;;7.15;;
7669;SDS011;3877;42.562;27.636;2022-09-02T11:20:17;15.57;;;7.55;;
7669;SDS011;3877;42.562;27.636;2022-09-02T11:22:58;15.88;;;7.55;;
7669;SDS011;3877;42.562;27.636;2022-09-02T11:25:33;22.00;;;7.82;;
7669;SDS011;3877;42.562;27.636;2022-09-02T11:28:20;18.63;;;7.28;;
7669;SDS011;3877;42.562;27.636;2022-09-02T11:30:55;18.02;;;7.55;;
7669;SDS011;3877;42.562;27.636;2022-09-02T11:33:33;22.13;;;7.10;;
7669;SDS011;3877;42.562;27.636;2022-09-02T11:36:12;21.15;;;7.22;;
7669;SDS011;3877;42.562;27.636;2022-09-02T11:38:41;27.02;;;8.07;;
7669;SDS011;3877;42.562;27.636;2022-09-02T11:41:24;15.85;;;6.10;;
7669;SDS011;3877;42.562;27.636;2022-09-02T11:43:57;18.40;;;7.03;;
7669;SDS011;3877;42.562;27.636;2022-09-02T11:46:37;19.33;;;7.03;;
7669;SDS011;3877;42.562;27.636;2022-09-02T11:49:31;21.40;;;7.78;;
7669;SDS011;3877;42.562;27.636;2022-09-02T11:52:27;15.90;;;6.93;;
7669;SDS011;3877;42.562;27.636;2022-09-02T11:55:07;15.32;;;6.93;;
7669;SDS011;3877;42.562;27.636;2022-09-02T11:57:36;16.23;;;6.10;;
7669;SDS011;3877;42.562;27.636;2022-09-02T12:03:00;18.48;;;6.38;;
7669;SDS011;3877;42.562;27.636;2022-09-02T12:05:45;16.70;;;6.80;;
7669;SDS011;3877;42.562;27.636;2022-09-02T12:11:50;17.50;;;7.07;;
7669;SDS011;3877;42.562;27.636;2022-09-02T12:17:33;17.05;;;7.03;;
7669;SDS011;3877;42.562;27.636;2022-09-02T12:20:06;18.08;;;7.35;;
7669;SDS011;3877;42.562;27.636;2022-09-02T12:22:36;20.33;;;7.47;;
7669;SDS011;3877;42.562;27.636;2022-09-02T12:28:20;13.23;;;6.60;;
7669;SDS011;3877;42.562;27.636;2022-09-02T12:31:12;13.82;;;5.85;;
7669;SDS011;3877;42.562;27.636;2022-09-02T12:33:43;13.35;;;6.10;;
7669;SDS011;3877;42.562;27.636;2022-09-02T12:42:21;20.08;;;6.82;;
7669;SDS011;3877;42.562;27.636;2022-09-02T12:45:00;20.90;;;7.15;;
7669;SDS011;3877;42.562;27.636;2022-09-02T12:47:48;27.15;;;8.35;;
7669;SDS011;3877;42.562;27.636;2022-09-02T12:50:25;22.88;;;7.95;;
7669;SDS011;3877;42.562;27.636;2022-09-02T12:53:06;26.15;;;8.88;;
7669;SDS011;3877;42.562;27.636;2022-09-02T12:55:39;25.95;;;8.20;;
7669;SDS011;3877;42.562;27.636;2022-09-02T12:58:19;17.15;;;7.82;;
7669;SDS011;3877;42.562;27.636;2022-09-02T13:00:55;22.30;;;7.40;;
7669;SDS011;3877;42.562;27.636;2022-09-02T13:06:32;18.85;;;7.28;;
7669;SDS011;3877;42.562;27.636;2022-09-02T13:09:13;22.20;;;6.90;;
7669;SDS011;3877;42.562;27.636;2022-09-02T13:15:09;21.70;;;7.30;;
7669;SDS011;3877;42.562;27.636;2022-09-02T13:21:11;22.52;;;7.75;;
7669;SDS011;3877;42.562;27.636;2022-09-02T13:23:56;13.70;;;5.85;;
7669;SDS011;3877;42.562;27.636;2022-09-02T13:26:50;18.33;;;6.43;;
7669;SDS011;3877;42.562;27.636;2022-09-02T13:32:31;19.83;;;6.75;;
7669;SDS011;3877;42.562;27.636;2022-09-02T13:35:00;24.85;;;7.80;;
7669;SDS011;3877;42.562;27.636;2022-09-02T13:37:31;17.30;;;7.63;;
7669;SDS011;3877;42.562;27.636;2022-09-02T13:40:02;15.00;;;7.45;;
7669;SDS011;3877;42.562;27.636;2022-09-02T13:42:32;16.65;;;8.13;;
7669;SDS011;3877;42.562;27.636;2022-09-02T13:45:12;23.92;;;8.38;;
7669;SDS011;3877;42.562;27.636;2022-09-02T13:47:41;18.42;;;7.82;;
7669;SDS011;3877;42.562;27.636;2022-09-02T13:50:11;18.73;;;7.25;;
7669;SDS011;3877;42.562;27.636;2022-09-02T13:52:41;21.05;;;7.00;;
7669;SDS011;3877;42.562;27.636;2022-09-02T13:55:12;25.30;;;7.70;;
7669;SDS011;3877;42.562;27.636;2022-09-02T13:57:42;17.65;;;7.93;;
7669;SDS011;3877;42.562;27.636;2022-09-02T14:00:13;21.63;;;7.22;;
7669;SDS011;3877;42.562;27.636;2022-09-02T14:02:53;23.48;;;7.40;;
7669;SDS011;3877;42.562;27.636;2022-09-02T14:05:23;14.98;;;7.03;;
7669;SDS011;3877;42.562;27.636;2022-09-02T14:07:54;17.67;;;7.20;;
7669;SDS011;3877;42.562;27.636;2022-09-02T14:10:25;17.45;;;7.18;;
7669;SDS011;3877;42.562;27.636;2022-09-02T14:12:53;21.50;;;7.80;;
7669;SDS011;3877;42.562;27.636;2022-09-02T14:15:22;20.60;;;7.28;;
7669;SDS011;3877;42.562;27.636;2022-09-02T14:18:07;17.65;;;6.82;;
7669;SDS011;3877;42.562;27.636;2022-09-02T14:20:37;19.40;;;7.82;;
7669;SDS011;3877;42.562;27.636;2022-09-02T14:23:19;16.27;;;7.70;;
7669;SDS011;3877;42.562;27.636;2022-09-02T14:25:48;18.73;;;7.13;;
7669;SDS011;3877;42.562;27.636;2022-09-02T14:28:18;17.40;;;7.35;;
7669;SDS011;3877;42.562;27.636;2022-09-02T14:30:55;18.73;;;7.35;;
7669;SDS011;3877;42.562;27.636;2022-09-02T14:33:24;27.02;;;9.00;;
7669;SDS011;3877;42.562;27.636;2022-09-02T14:36:02;17.90;;;7.60;;
7669;SDS011;3877;42.562;27.636;2022-09-02T14:38:34;18.02;;;6.97;;
7669;SDS011;3877;42.562;27.636;2022-09-02T14:41:04;17.40;;;8.32;;
7669;SDS011;3877;42.562;27.636;2022-09-02T14:43:41;20.88;;;8.45;;
7669;SDS011;3877;42.562;27.636;2022-09-02T14:46:22;18.30;;;8.27;;
7669;SDS011;3877;42.562;27.636;2022-09-02T14:48:56;20.63;;;9.18;;
7669;SDS011;3877;42.562;27.636;2022-09-02T14:51:30;17.67;;;8.82;;
7669;SDS011;3877;42.562;27.636;2022-09-02T14:54:02;22.67;;;9.02;;
7669;SDS011;3877;42.562;27.636;2022-09-02T14:56:43;25.10;;;9.32;;
7669;SDS011;3877;42.562;27.636;2022-09-02T14:59:11;25.75;;;9.60;;
7669;SDS011;3877;42.562;27.636;2022-09-02T15:01:39;22.00;;;9.43;;
7669;SDS011;3877;42.562;27.636;2022-09-02T15:04:08;18.13;;;8.20;;
7669;SDS011;3877;42.562;27.636;2022-09-02T15:06:36;21.92;;;8.55;;
7669;SDS011;3877;42.562;27.636;2022-09-02T15:09:04;18.42;;;7.57;;
7669;SDS011;3877;42.562;27.636;2022-09-02T15:11:32;22.38;;;7.55;;
7669;SDS011;3877;42.562;27.636;2022-09-02T15:13:59;17.17;;;7.35;;
7669;SDS011;3877;42.562;27.636;2022-09-02T15:16:26;19.65;;;7.28;;
7669;SDS011;3877;42.562;27.636;2022-09-02T15:18:54;14.30;;;5.90;;
7669;SDS011;3877;42.562;27.636;2022-09-02T15:21:21;17.42;;;6.13;;
7669;SDS011;3877;42.562;27.636;2022-09-02T15:23:48;14.70;;;6.03;;
7669;SDS011;3877;42.562;27.636;2022-09-02T15:26:17;15.05;;;5.78;;
7669;SDS011;3877;42.562;27.636;2022-09-02T15:28:45;11.18;;;5.80;;
7669;SDS011;3877;42.562;27.636;2022-09-02T15:31:12;13.82;;;6.10;;
7669;SDS011;3877;42.562;27.636;2022-09-02T15:33:39;15.52;;;7.47;;
7669;SDS011;3877;42.562;27.636;2022-09-02T15:36:08;13.40;;;6.00;;
7669;SDS011;3877;42.562;27.636;2022-09-02T15:38:37;12.80;;;5.40;;
7669;SDS011;3877;42.562;27.636;2022-09-02T15:41:12;11.00;;;5.35;;
7669;SDS011;3877;42.562;27.636;2022-09-02T15:43:42;14.90;;;6.00;;
7669;SDS011;3877;42.562;27.636;2022-09-02T15:46:21;13.10;;;6.28;;
7669;SDS011;3877;42.562;27.636;2022-09-02T15:48:50;12.23;;;5.65;;